createdAt,value
2019-06-01T00:00:11.678Z,14.60
2019-06-01T00:02:35.488Z,14.60
2019-06-01T00:05:06.410Z,14.50
2019-06-01T00:07:34.828Z,14.50
2019-06-01T00:10:04.609Z,14.50
2019-06-01T00:12:33.014Z,14.50
2019-06-01T00:15:01.429Z,14.50
2019-06-01T00:17:30.133Z,14.40
2019-06-01T00:19:58.797Z,14.40
2019-06-01T00:22:27.201Z,14.40
2019-06-01T00:24:55.966Z,14.40
2019-06-01T00:27:24.653Z,14.30
2019-06-01T00:29:53.151Z,14.30
2019-06-01T00:32:21.842Z,14.20
2019-06-01T00:34:50.256Z,14.20
2019-06-01T00:37:18.661Z,14.20
2019-06-01T00:39:47.875Z,14.20
2019-06-01T00:42:16.561Z,14.20
2019-06-01T00:44:46.219Z,14.20
2019-06-01T00:47:14.857Z,14.10
2019-06-01T00:49:44.500Z,14.10
2019-06-01T00:52:13.474Z,14.20
2019-06-01T00:54:43.188Z,14.10
2019-06-01T00:57:11.723Z,14.10
2019-06-01T00:59:40.198Z,14.00
2019-06-01T01:02:08.942Z,14.00
2019-06-01T01:04:37.473Z,13.90
2019-06-01T01:07:06.047Z,13.90
2019-06-01T01:09:34.747Z,13.80
2019-06-01T01:12:03.148Z,13.80
2019-06-01T01:14:31.544Z,13.70
2019-06-01T01:16:59.953Z,13.70
2019-06-01T01:19:28.371Z,13.60
2019-06-01T01:21:57.820Z,13.60
2019-06-01T01:24:26.229Z,13.60
2019-06-01T01:26:54.724Z,13.60
2019-06-01T01:29:23.728Z,13.50
2019-06-01T01:31:53.167Z,13.50
2019-06-01T01:34:21.724Z,13.50
2019-06-01T01:36:50.153Z,13.50
2019-06-01T01:39:18.562Z,13.40
2019-06-01T01:41:47.993Z,13.40
2019-06-01T01:44:16.756Z,13.40
2019-06-01T01:46:45.172Z,13.30
2019-06-01T01:49:13.575Z,13.30
2019-06-01T01:51:42.004Z,13.30
2019-06-01T01:54:10.410Z,13.20
2019-06-01T01:56:38.831Z,13.20
2019-06-01T01:59:07.238Z,13.20
2019-06-01T02:01:36.003Z,13.20
2019-06-01T02:04:04.499Z,13.10
2019-06-01T02:06:33.264Z,13.10
2019-06-01T02:09:01.935Z,13.00
2019-06-01T02:11:30.860Z,13.00
2019-06-01T02:13:59.921Z,13.00
2019-06-01T02:16:28.867Z,13.00
2019-06-01T02:18:58.800Z,13.00
2019-06-01T02:21:27.419Z,13.10
2019-06-01T02:23:56.936Z,13.10
2019-06-01T02:26:25.638Z,13.10
2019-06-01T02:28:55.251Z,13.00
2019-06-01T02:31:39.703Z,13.00
2019-06-01T02:33:54.078Z,13.00
2019-06-01T02:36:22.492Z,12.90
2019-06-01T02:38:50.911Z,12.90
2019-06-01T02:41:19.669Z,12.90
2019-06-01T02:43:48.086Z,12.80
2019-06-01T02:46:16.848Z,12.90
2019-06-01T02:48:45.332Z,12.90
2019-06-01T02:51:13.737Z,12.80
2019-06-01T02:53:42.164Z,12.90
2019-06-01T02:56:10.574Z,12.80
2019-06-01T02:58:38.995Z,12.80
2019-06-01T03:01:21.690Z,12.80
2019-06-01T03:03:50.952Z,12.80
2019-06-01T03:06:20.198Z,12.80
2019-06-01T03:08:51.699Z,12.80
2019-06-01T03:11:22.014Z,12.80
2019-06-01T03:13:52.855Z,12.80
2019-06-01T03:16:24.599Z,12.70
2019-06-01T03:18:54.460Z,12.70
2019-06-01T03:21:24.835Z,12.70
2019-06-01T03:23:56.692Z,12.70
2019-06-01T03:26:28.003Z,12.60
2019-06-01T03:29:00.115Z,12.60
2019-06-01T03:31:28.891Z,12.60
2019-06-01T03:33:57.318Z,12.60
2019-06-01T03:36:26.118Z,12.60
2019-06-01T03:38:55.010Z,12.50
2019-06-01T03:41:23.691Z,12.50
2019-06-01T03:43:52.116Z,12.60
2019-06-01T03:46:20.522Z,12.60
2019-06-01T03:48:48.946Z,12.60
2019-06-01T03:51:17.356Z,12.60
2019-06-01T03:53:45.775Z,12.60
2019-06-01T03:56:14.186Z,12.60
2019-06-01T03:58:42.613Z,12.60
2019-06-01T04:01:11.225Z,12.60
2019-06-01T04:03:39.716Z,12.60
2019-06-01T04:06:09.330Z,12.60
2019-06-01T04:08:38.439Z,12.60
2019-06-01T04:11:07.765Z,12.70
2019-06-01T04:13:36.466Z,12.70
2019-06-01T04:16:05.862Z,12.70
2019-06-01T04:18:34.634Z,12.70
2019-06-01T04:21:04.227Z,12.80
2019-06-01T04:23:32.925Z,12.80
2019-06-01T04:26:02.168Z,12.80
2019-06-01T04:28:30.927Z,12.90
2019-06-01T04:30:59.326Z,13.00
2019-06-01T04:33:27.739Z,13.00
2019-06-01T04:35:56.159Z,13.10
2019-06-01T04:38:24.579Z,13.10
2019-06-01T04:40:52.999Z,13.20
2019-06-01T04:43:21.418Z,13.30
2019-06-01T04:45:49.864Z,13.30
2019-06-01T04:48:18.334Z,13.40
2019-06-01T04:50:46.747Z,13.40
2019-06-01T04:53:15.178Z,13.60
2019-06-01T04:55:43.655Z,13.60
2019-06-01T04:58:13.092Z,13.70
2019-06-01T05:00:41.640Z,13.80
2019-06-01T05:03:10.831Z,13.90
2019-06-01T05:05:40.350Z,13.90
2019-06-01T05:08:09.404Z,14.00
2019-06-01T05:10:38.058Z,14.10
2019-06-01T05:13:07.339Z,14.10
2019-06-01T05:15:35.874Z,14.20
2019-06-01T05:18:05.949Z,14.30
2019-06-01T05:20:36.136Z,14.40
2019-06-01T05:23:06.314Z,14.50
2019-06-01T05:25:35.286Z,14.50
2019-06-01T05:28:07.041Z,14.60
2019-06-01T05:30:35.855Z,14.80
2019-06-01T05:33:23.669Z,14.90
2019-06-01T05:35:36.607Z,15.00
2019-06-01T05:38:05.427Z,15.00
2019-06-01T05:40:34.216Z,15.00
2019-06-01T05:43:02.642Z,15.10
2019-06-01T05:45:31.099Z,15.20
2019-06-01T05:47:59.859Z,15.40
2019-06-01T05:50:28.331Z,15.50
2019-06-01T05:52:57.140Z,15.60
2019-06-01T05:55:25.663Z,15.80
2019-06-01T05:57:54.403Z,15.90
2019-06-01T06:00:28.649Z,16.00
2019-06-01T06:02:57.115Z,16.00
2019-06-01T06:05:25.571Z,16.10
2019-06-01T06:07:54.049Z,16.20
2019-06-01T06:10:22.499Z,16.30
2019-06-01T06:12:50.934Z,16.50
2019-06-01T06:15:19.701Z,16.60
2019-06-01T06:17:48.524Z,16.70
2019-06-01T06:20:17.997Z,16.90
2019-06-01T06:22:47.083Z,17.00
2019-06-01T06:25:16.056Z,17.10
2019-06-01T06:27:44.498Z,17.30
2019-06-01T06:30:13.455Z,17.40
2019-06-01T06:32:41.965Z,17.60
2019-06-01T06:35:10.578Z,17.80
2019-06-01T06:37:42.230Z,17.90
2019-06-01T06:40:10.796Z,18.00
2019-06-01T06:42:39.232Z,18.10
2019-06-01T06:45:08.147Z,18.30
2019-06-01T06:47:36.615Z,18.50
2019-06-01T06:50:06.346Z,18.70
2019-06-01T06:52:34.819Z,18.80
2019-06-01T06:55:03.745Z,19.10
2019-06-01T06:57:32.187Z,19.40
2019-06-01T07:00:00.623Z,19.70
2019-06-01T07:02:29.106Z,20.00
2019-06-01T07:04:57.551Z,20.40
2019-06-01T07:07:25.988Z,20.80
2019-06-01T07:09:54.746Z,21.00
2019-06-01T07:12:23.388Z,21.30
2019-06-01T07:14:51.915Z,21.60
2019-06-01T07:17:21.410Z,22.00
2019-06-01T07:19:50.247Z,22.40
2019-06-01T07:22:19.743Z,22.80
2019-06-01T07:24:48.520Z,23.10
2019-06-01T07:27:17.374Z,23.30
2019-06-01T07:29:46.212Z,23.70
2019-06-01T07:32:14.707Z,24.00
2019-06-01T07:34:43.216Z,24.50
2019-06-01T07:37:11.696Z,24.90
2019-06-01T07:39:40.157Z,25.20
2019-06-01T07:42:08.719Z,25.50
2019-06-01T07:44:37.203Z,25.70
2019-06-01T07:47:05.654Z,25.80
2019-06-01T07:49:34.132Z,26.10
2019-06-01T07:52:12.654Z,26.30
2019-06-01T07:54:32.884Z,26.60
2019-06-01T07:57:01.324Z,27.00
2019-06-01T07:59:30.535Z,27.10
2019-06-01T08:01:59.292Z,27.20
2019-06-01T08:04:28.604Z,27.10
2019-06-01T08:06:58.289Z,27.10
2019-06-01T08:09:27.920Z,27.40
2019-06-01T08:11:56.612Z,27.70
2019-06-01T08:14:26.434Z,27.90
2019-06-01T08:16:55.263Z,28.20
2019-06-01T08:19:23.903Z,28.40
2019-06-01T08:21:52.776Z,28.30
2019-06-01T08:24:22.154Z,28.30
2019-06-01T08:26:51.356Z,28.70
2019-06-01T08:29:19.803Z,29.10
2019-06-01T08:31:48.244Z,29.30
2019-06-01T08:34:17.101Z,29.70
2019-06-01T08:36:45.560Z,29.90
2019-06-01T08:39:14.014Z,29.60
2019-06-01T08:41:42.468Z,28.70
2019-06-01T08:44:10.920Z,28.40
2019-06-01T08:46:39.354Z,28.80
2019-06-01T08:49:07.799Z,29.00
2019-06-01T08:51:36.239Z,29.40
2019-06-01T08:54:05.334Z,29.90
2019-06-01T08:56:34.437Z,30.30
2019-06-01T08:59:04.423Z,30.40
2019-06-01T09:01:33.125Z,29.70
2019-06-01T09:04:01.915Z,29.70
2019-06-01T09:06:30.976Z,30.10
2019-06-01T09:08:59.548Z,30.30
2019-06-01T09:11:29.177Z,30.40
2019-06-01T09:13:57.997Z,30.90
2019-06-01T09:16:27.811Z,31.60
2019-06-01T09:18:56.995Z,32.30
2019-06-01T09:21:25.444Z,32.50
2019-06-01T09:23:54.160Z,32.00
2019-06-01T09:26:22.595Z,31.90
2019-06-01T09:28:51.032Z,31.50
2019-06-01T09:31:19.461Z,32.00
2019-06-01T09:33:47.902Z,32.70
2019-06-01T09:36:16.352Z,33.10
2019-06-01T09:38:44.785Z,33.60
2019-06-01T09:41:13.231Z,33.40
2019-06-01T09:43:41.744Z,33.30
2019-06-01T09:46:10.471Z,33.20
2019-06-01T09:48:38.924Z,32.80
2019-06-01T09:51:07.355Z,32.70
2019-06-01T09:53:36.145Z,33.10
2019-06-01T09:56:05.474Z,33.70
2019-06-01T09:58:34.632Z,34.40
2019-06-01T10:01:03.108Z,35.10
2019-06-01T10:03:32.422Z,35.70
2019-06-01T10:06:02.466Z,36.20
2019-06-01T10:08:32.564Z,36.60
2019-06-01T10:11:01.369Z,36.60
2019-06-01T10:13:30.461Z,36.70
2019-06-01T10:15:59.021Z,37.00
2019-06-01T10:18:27.523Z,37.30
2019-06-01T10:20:56.024Z,37.80
2019-06-01T10:23:24.469Z,38.10
2019-06-01T10:25:53.228Z,38.60
2019-06-01T10:28:21.678Z,38.70
2019-06-01T10:30:50.104Z,38.30
2019-06-01T10:33:18.555Z,38.60
2019-06-01T10:35:46.995Z,39.00
2019-06-01T10:38:15.513Z,39.30
2019-06-01T10:40:44.058Z,39.30
2019-06-01T10:43:12.896Z,39.20
2019-06-01T10:45:41.995Z,39.40
2019-06-01T10:48:10.655Z,39.20
2019-06-01T10:50:40.563Z,39.60
2019-06-01T10:53:09.578Z,39.60
2019-06-01T10:55:38.378Z,39.80
2019-06-01T10:58:08.250Z,40.40
2019-06-01T11:00:42.064Z,41.10
2019-06-01T11:03:06.850Z,41.30
2019-06-01T11:05:36.634Z,41.30
2019-06-01T11:08:05.403Z,41.30
2019-06-01T11:10:34.837Z,41.00
2019-06-01T11:13:03.652Z,40.80
2019-06-01T11:15:32.888Z,40.10
2019-06-01T11:18:01.667Z,39.30
2019-06-01T11:20:30.510Z,38.80
2019-06-01T11:22:59.712Z,39.30
2019-06-01T11:25:28.131Z,39.50
2019-06-01T11:27:56.551Z,39.30
2019-06-01T11:30:25.444Z,39.10
2019-06-01T11:32:53.859Z,38.40
2019-06-01T11:35:22.278Z,38.30
2019-06-01T11:37:50.703Z,38.10
2019-06-01T11:40:19.278Z,37.60
2019-06-01T11:42:48.187Z,36.70
2019-06-01T11:45:16.936Z,35.60
2019-06-01T11:47:45.360Z,35.40
2019-06-01T11:50:14.832Z,35.70
2019-06-01T11:52:43.340Z,35.80
2019-06-01T11:55:12.975Z,36.00
2019-06-01T11:57:41.624Z,35.90
2019-06-01T12:00:11.743Z,35.90
2019-06-01T12:02:41.659Z,35.60
2019-06-01T12:05:10.963Z,35.30
2019-06-01T12:07:39.858Z,35.20
2019-06-01T12:10:08.907Z,35.00
2019-06-01T12:12:38.292Z,35.30
2019-06-01T12:15:08.509Z,35.50
2019-06-01T12:17:36.931Z,35.70
2019-06-01T12:20:07.402Z,36.10
2019-06-01T12:22:36.742Z,36.40
2019-06-01T12:25:06.352Z,36.10
2019-06-01T12:27:35.342Z,35.50
2019-06-01T12:30:07.065Z,35.30
2019-06-01T12:32:35.487Z,35.40
2019-06-01T12:35:06.536Z,35.40
2019-06-01T12:37:55.049Z,35.40
2019-06-01T12:40:08.626Z,35.30
2019-06-01T12:42:37.031Z,35.40
2019-06-01T12:45:07.445Z,35.50
2019-06-01T12:47:35.986Z,35.70
2019-06-01T12:50:08.868Z,35.70
2019-06-01T12:52:37.463Z,35.80
2019-06-01T12:55:07.582Z,35.90
2019-06-01T12:57:37.673Z,35.70
2019-06-01T13:00:08.227Z,35.50
2019-06-01T13:02:36.646Z,35.70
2019-06-01T13:05:08.971Z,35.90
2019-06-01T13:07:51.187Z,36.10
2019-06-01T13:10:08.236Z,36.10
2019-06-01T13:12:36.677Z,36.30
2019-06-01T13:15:11.070Z,36.50
2019-06-01T13:17:39.479Z,36.60
2019-06-01T13:20:08.834Z,36.70
2019-06-01T13:22:37.635Z,36.90
2019-06-01T13:25:07.102Z,36.80
2019-06-01T13:27:35.774Z,36.70
2019-06-01T13:30:07.554Z,36.60
2019-06-01T13:32:35.972Z,36.30
2019-06-01T13:35:08.563Z,36.00
2019-06-01T13:37:36.987Z,35.70
2019-06-01T13:40:06.940Z,36.00
2019-06-01T13:42:35.420Z,36.40
2019-06-01T13:45:06.463Z,36.90
2019-06-01T13:47:34.879Z,37.00
2019-06-01T13:50:06.701Z,37.20
2019-06-01T13:52:35.874Z,37.80
2019-06-01T13:55:06.939Z,38.00
2019-06-01T13:57:38.587Z,38.10
2019-06-01T14:00:09.319Z,38.20
2019-06-01T14:02:37.735Z,38.20
2019-06-01T14:05:08.382Z,38.20
2019-06-01T14:07:36.889Z,38.20
2019-06-01T14:10:07.040Z,38.40
2019-06-01T14:12:35.464Z,38.70
2019-06-01T14:15:08.026Z,39.20
2019-06-01T14:17:36.625Z,39.60
2019-06-01T14:20:06.460Z,39.90
2019-06-01T14:22:34.871Z,40.00
2019-06-01T14:25:13.385Z,40.50
2019-06-01T14:27:37.551Z,41.10
2019-06-01T14:30:07.399Z,41.80
2019-06-01T14:32:35.822Z,42.30
2019-06-01T14:35:06.147Z,42.20
2019-06-01T14:37:34.575Z,42.80
2019-06-01T14:40:03.130Z,43.60
2019-06-01T14:42:31.607Z,44.30
2019-06-01T14:45:00.068Z,44.60
2019-06-01T14:47:28.499Z,44.70
2019-06-01T14:49:57.780Z,45.20
2019-06-01T14:52:26.575Z,45.60
2019-06-01T14:54:55.909Z,46.10
2019-06-01T14:57:24.502Z,46.80
2019-06-01T14:59:54.152Z,48.00
2019-06-01T15:02:22.798Z,48.90
2019-06-01T15:04:52.230Z,48.50
2019-06-01T15:07:20.802Z,47.80
2019-06-01T15:09:50.092Z,47.80
2019-06-01T15:12:18.934Z,48.40
2019-06-01T15:14:48.451Z,49.00
2019-06-01T15:17:17.063Z,49.50
2019-06-01T15:19:45.474Z,49.80
2019-06-01T15:22:13.886Z,48.90
2019-06-01T15:24:42.319Z,48.00
2019-06-01T15:27:10.811Z,48.50
2019-06-01T15:29:39.225Z,49.10
2019-06-01T15:32:07.939Z,49.90
2019-06-01T15:34:36.625Z,49.80
2019-06-01T15:37:05.033Z,49.80
2019-06-01T15:39:33.446Z,50.20
2019-06-01T15:42:01.864Z,50.20
2019-06-01T15:44:30.274Z,50.00
2019-06-01T15:46:59.684Z,49.60
2019-06-01T15:49:28.595Z,49.30
2019-06-01T15:51:57.855Z,48.70
2019-06-01T15:54:27.791Z,47.70
2019-06-01T15:56:56.411Z,46.60
2019-06-01T15:59:25.016Z,46.10
2019-06-01T16:01:53.415Z,45.90
2019-06-01T16:04:21.866Z,45.60
2019-06-01T16:06:50.278Z,45.40
2019-06-01T16:09:18.713Z,44.90
2019-06-01T16:11:47.141Z,44.80
2019-06-01T16:14:15.538Z,45.30
2019-06-01T16:16:43.954Z,45.70
2019-06-01T16:19:12.629Z,46.10
2019-06-01T16:21:41.044Z,46.60
2019-06-01T16:24:09.468Z,46.50
2019-06-01T16:26:37.879Z,46.70
2019-06-01T16:29:06.298Z,46.80
2019-06-01T16:31:34.708Z,46.60
2019-06-01T16:34:03.144Z,46.40
2019-06-01T16:36:31.550Z,46.80
2019-06-01T16:39:04.392Z,47.00
2019-06-01T16:41:30.104Z,47.00
2019-06-01T16:43:59.523Z,46.60
2019-06-01T16:46:28.010Z,46.30
2019-06-01T16:48:57.483Z,46.40
2019-06-01T16:51:26.160Z,45.40
2019-06-01T16:53:55.685Z,44.60
2019-06-01T16:56:24.423Z,43.80
2019-06-01T16:58:52.850Z,42.80
2019-06-01T17:01:21.258Z,41.90
2019-06-01T17:03:49.676Z,41.20
2019-06-01T17:06:18.464Z,39.90
2019-06-01T17:08:46.874Z,39.00
2019-06-01T17:11:15.283Z,38.60
2019-06-01T17:13:43.695Z,37.90
2019-06-01T17:16:12.115Z,37.10
2019-06-01T17:18:40.527Z,36.60
2019-06-01T17:21:08.944Z,36.40
2019-06-01T17:23:37.359Z,36.00
2019-06-01T17:26:07.121Z,35.80
2019-06-01T17:28:35.921Z,35.60
2019-06-01T17:31:04.416Z,35.60
2019-06-01T17:33:33.171Z,35.40
2019-06-01T17:36:02.717Z,35.20
2019-06-01T17:38:31.479Z,34.80
2019-06-01T17:41:00.313Z,34.70
2019-06-01T17:43:28.734Z,34.50
2019-06-01T17:45:57.146Z,34.40
2019-06-01T17:48:27.235Z,34.20
2019-06-01T17:50:55.712Z,33.80
2019-06-01T17:53:24.141Z,33.40
2019-06-01T17:55:52.620Z,33.40
2019-06-01T17:58:21.103Z,33.30
2019-06-01T18:00:49.527Z,33.10
2019-06-01T18:03:18.002Z,33.00
2019-06-01T18:05:46.497Z,32.70
2019-06-01T18:08:15.108Z,32.40
2019-06-01T18:10:53.909Z,32.20
2019-06-01T18:13:14.090Z,32.00
2019-06-01T18:15:42.588Z,31.80
2019-06-01T18:18:12.607Z,31.40
2019-06-01T18:20:41.581Z,31.20
2019-06-01T18:23:11.423Z,30.80
2019-06-01T18:25:40.781Z,30.00
2019-06-01T18:28:15.132Z,29.20
2019-06-01T18:30:39.429Z,28.40
2019-06-01T18:33:09.022Z,27.70
2019-06-01T18:35:37.620Z,27.30
2019-06-01T18:38:06.263Z,26.90
2019-06-01T18:40:35.727Z,26.60
2019-06-01T18:43:07.928Z,26.20
2019-06-01T18:45:37.083Z,25.90
2019-06-01T18:48:06.546Z,25.60
2019-06-01T18:50:35.643Z,25.30
2019-06-01T18:53:05.854Z,25.10
2019-06-01T18:55:35.763Z,25.00
2019-06-01T18:58:06.314Z,24.90
2019-06-01T19:00:39.324Z,24.70
2019-06-01T19:03:07.101Z,24.60
2019-06-01T19:05:35.990Z,24.50
2019-06-01T19:08:05.182Z,24.50
2019-06-01T19:10:34.282Z,24.60
2019-06-01T19:13:02.993Z,24.60
2019-06-01T19:15:31.427Z,24.60
2019-06-01T19:17:59.854Z,24.50
2019-06-01T19:20:28.623Z,24.40
2019-06-01T19:22:57.191Z,24.30
2019-06-01T19:25:26.141Z,24.20
2019-06-01T19:27:54.570Z,24.10
2019-06-01T19:30:34.747Z,24.00
2019-06-01T19:33:03.163Z,23.90
2019-06-01T19:35:32.946Z,23.80
2019-06-01T19:38:02.525Z,23.70
2019-06-01T19:40:33.657Z,23.70
2019-06-01T19:43:02.519Z,23.60
2019-06-01T19:45:30.943Z,23.50
2019-06-01T19:47:59.367Z,23.40
2019-06-01T19:50:27.786Z,23.20
2019-06-01T19:52:56.483Z,23.10
2019-06-01T19:55:24.895Z,23.00
2019-06-01T19:57:53.309Z,22.90
2019-06-01T20:00:22.461Z,22.80
2019-06-01T20:02:51.190Z,22.70
2019-06-01T20:05:19.901Z,22.60
2019-06-01T20:07:48.318Z,22.50
2019-06-01T20:10:16.811Z,22.40
2019-06-01T20:12:45.549Z,22.30
2019-06-01T20:15:15.367Z,22.20
2019-06-01T20:17:44.022Z,22.00
2019-06-01T20:20:12.819Z,21.80
2019-06-01T20:22:41.242Z,21.60
2019-06-01T20:25:11.502Z,21.40
2019-06-01T20:27:40.013Z,21.30
2019-06-01T20:30:08.797Z,21.20
2019-06-01T20:32:37.587Z,21.10
2019-06-01T20:35:06.537Z,21.00
2019-06-01T20:37:35.450Z,20.80
2019-06-01T20:40:06.946Z,20.80
2019-06-01T20:42:35.447Z,20.70
2019-06-01T20:45:08.564Z,20.60
2019-06-01T20:47:37.372Z,20.50
2019-06-01T20:50:09.826Z,20.40
2019-06-01T20:52:38.730Z,20.30
2019-06-01T20:55:08.923Z,20.30
2019-06-01T20:57:38.405Z,20.20
2019-06-01T21:00:08.666Z,20.10
2019-06-01T21:02:37.271Z,20.00
2019-06-01T21:05:09.697Z,19.90
2019-06-01T21:07:38.335Z,19.70
2019-06-01T21:10:08.640Z,19.60
2019-06-01T21:12:44.893Z,19.50
2019-06-01T21:15:08.340Z,19.50
2019-06-01T21:17:36.758Z,19.40
2019-06-01T21:20:08.419Z,19.30
2019-06-01T21:22:37.233Z,19.20
2019-06-01T21:25:07.404Z,19.10
2019-06-01T21:27:36.188Z,19.00
2019-06-01T21:30:06.711Z,18.90
2019-06-01T21:32:35.135Z,18.90
2019-06-01T21:35:03.997Z,18.80
2019-06-01T21:37:32.402Z,18.70
2019-06-01T21:40:00.806Z,18.70
2019-06-01T21:42:29.234Z,18.60
2019-06-01T21:44:57.648Z,18.60
2019-06-01T21:47:26.068Z,18.50
2019-06-01T21:49:54.478Z,18.40
2019-06-01T21:52:24.143Z,18.30
2019-06-01T21:54:52.881Z,18.30
2019-06-01T21:57:22.323Z,18.30
2019-06-01T21:59:50.986Z,18.30
2019-06-01T22:02:19.423Z,18.30
2019-06-01T22:04:48.299Z,18.30
2019-06-01T22:07:17.255Z,18.20
2019-06-01T22:09:46.211Z,18.10
2019-06-01T22:12:14.640Z,18.00
2019-06-01T22:14:43.339Z,18.00
2019-06-01T22:17:11.747Z,17.90
2019-06-01T22:19:40.174Z,17.90
2019-06-01T22:22:08.634Z,17.80
2019-06-01T22:24:37.079Z,17.80
2019-06-01T22:27:05.600Z,17.60
2019-06-01T22:29:34.019Z,17.50
2019-06-01T22:32:02.450Z,17.30
2019-06-01T22:34:31.284Z,17.20
2019-06-01T22:36:59.758Z,17.20
2019-06-01T22:39:28.980Z,17.20
2019-06-01T22:41:57.685Z,17.10
2019-06-01T22:44:26.251Z,17.10
2019-06-01T22:46:54.707Z,17.10
2019-06-01T22:49:23.209Z,17.10
2019-06-01T22:51:51.609Z,17.00
2019-06-01T22:54:21.047Z,17.00
2019-06-01T22:56:50.775Z,17.00
2019-06-01T22:59:20.420Z,16.90
2019-06-01T23:01:48.991Z,16.90
2019-06-01T23:04:17.423Z,16.90
2019-06-01T23:06:45.838Z,16.80
2019-06-01T23:09:14.250Z,16.80
2019-06-01T23:11:42.662Z,16.70
2019-06-01T23:14:11.082Z,16.70
2019-06-01T23:16:39.495Z,16.60
2019-06-01T23:19:07.922Z,16.60
2019-06-01T23:21:36.333Z,16.50
2019-06-01T23:24:05.152Z,16.50
2019-06-01T23:26:33.571Z,16.50
2019-06-01T23:29:02.339Z,16.50
2019-06-01T23:31:30.767Z,16.50
2019-06-01T23:33:59.177Z,16.50
2019-06-01T23:36:28.859Z,16.40
2019-06-01T23:38:57.686Z,16.40
2019-06-01T23:41:26.643Z,16.30
2019-06-01T23:44:10.354Z,16.30
2019-06-01T23:46:25.264Z,16.20
2019-06-01T23:48:53.973Z,16.20
2019-06-01T23:51:23.369Z,16.20
2019-06-01T23:53:51.981Z,16.10
2019-06-01T23:56:20.399Z,16.00
2019-06-01T23:58:48.824Z,16.00
